Time;durP1;ratioP1;P1;durP2;ratioP2;P2;SDS_P1;SDS_P2;PMS_P1;PMS_P2;Temp;Humidity;BMP_temperature;BMP_pressure;BME280_temperature;BME280_humidity;BME280_pressure;Samples;Min_cycle;Max_cycle;Signal;HPM_P1;HPM_P2
2020/12/28 00:02:10;;;;;;;1.77;1.00;;;3.30;99.90;;;3.82;100.00;94541.38;4997107;28;20489;-83
2020/12/28 00:04:38;;;;;;;1.23;1.00;;;3.20;99.90;;;3.83;100.00;94540.38;5000229;28;20463;-82
2020/12/28 00:07:07;;;;;;;1.43;1.10;;;3.30;99.90;;;3.82;100.00;94532.84;4995122;28;20475;-82
2020/12/28 00:09:35;;;;;;;1.23;1.10;;;3.30;99.90;;;3.81;100.00;94536.47;4993861;28;20466;-83
2020/12/28 00:12:03;;;;;;;1.87;0.90;;;3.30;99.90;;;3.82;100.00;94535.44;4996126;28;20880;-82
2020/12/28 00:14:30;;;;;;;1.37;1.07;;;3.30;99.90;;;3.83;100.00;94529.25;4994545;28;20473;-83
2020/12/28 00:16:58;;;;;;;1.20;1.10;;;3.40;99.90;;;3.81;100.00;94526.13;4995349;28;20498;-83
2020/12/28 00:19:26;;;;;;;0.90;0.90;;;3.30;99.90;;;3.81;100.00;94528.72;4996719;28;20490;-83
2020/12/28 00:21:53;;;;;;;6.10;1.00;;;3.30;99.90;;;3.84;100.00;94530.84;4994168;28;20575;-83
2020/12/28 00:24:22;;;;;;;1.40;1.10;;;3.30;99.90;;;3.81;100.00;94519.16;4993516;28;20463;-83
2020/12/28 00:26:50;;;;;;;1.93;1.10;;;3.40;99.90;;;3.79;100.00;94512.66;4994923;28;20482;-83
2020/12/28 00:29:17;;;;;;;0.93;0.93;;;3.40;99.90;;;3.75;100.00;94511.56;4992947;28;20493;-83
2020/12/28 00:31:45;;;;;;;1.57;0.90;;;3.20;99.90;;;3.80;100.00;94519.38;4996455;28;20466;-83
2020/12/28 00:34:13;;;;;;;1.83;1.23;;;3.30;99.90;;;3.82;100.00;94525.09;4994226;28;20479;-84
2020/12/28 00:36:40;;;;;;;1.00;0.90;;;3.30;99.90;;;3.84;100.00;94510.94;4995820;28;20468;-83
2020/12/28 00:39:08;;;;;;;1.00;0.83;;;3.30;99.90;;;3.88;100.00;94524.19;4996419;28;20573;-83
2020/12/28 00:41:36;;;;;;;1.00;0.90;;;3.40;99.90;;;3.83;100.00;94531.84;4995357;28;20464;-84
2020/12/28 00:44:04;;;;;;;1.67;1.13;;;3.40;99.90;;;3.84;100.00;94531.63;4992003;28;20926;-84
2020/12/28 00:46:31;;;;;;;0.80;0.80;;;3.40;99.90;;;3.86;100.00;94518.47;4992093;28;20476;-83
2020/12/28 00:48:59;;;;;;;0.83;0.83;;;3.40;99.90;;;3.87;100.00;94514.88;4995271;28;20525;-84
2020/12/28 00:51:26;;;;;;;1.23;1.10;;;3.40;99.90;;;3.90;100.00;94504.06;4994660;28;20475;-83
2020/12/28 00:53:54;;;;;;;0.90;0.90;;;3.40;99.90;;;3.89;100.00;94510.22;4993817;28;20472;-83
2020/12/28 00:56:21;;;;;;;0.70;0.70;;;3.40;99.90;;;3.88;100.00;94513.84;4992762;28;20553;-83
2020/12/28 00:58:49;;;;;;;1.20;1.00;;;3.40;99.90;;;3.91;100.00;94503.84;4995931;28;20550;-83
2020/12/28 01:01:17;;;;;;;0.90;0.90;;;3.40;99.90;;;3.91;100.00;94505.63;4995741;28;20487;-84
2020/12/28 01:03:44;;;;;;;0.97;0.87;;;3.40;99.90;;;3.91;100.00;94510.81;4992949;28;20475;-84
2020/12/28 01:06:12;;;;;;;1.13;1.03;;;3.40;99.90;;;3.93;100.00;94517.31;4994937;28;20538;-84
2020/12/28 01:08:40;;;;;;;1.00;0.90;;;3.40;99.90;;;3.89;100.00;94512.81;4993650;28;20478;-83
2020/12/28 01:11:07;;;;;;;1.20;0.90;;;3.30;99.90;;;3.93;100.00;94516.50;4995476;28;20459;-83
2020/12/28 01:13:35;;;;;;;1.00;0.90;;;3.40;99.90;;;3.95;100.00;94532.59;4991922;28;20475;-84
2020/12/28 01:16:10;;;;;;;0.80;0.80;;;3.40;99.90;;;3.93;100.00;94535.38;4995848;28;20858;-83
2020/12/28 01:18:37;;;;;;;0.90;0.90;;;3.40;99.90;;;3.89;100.00;94528.31;4993353;28;20502;-83
2020/12/28 01:21:05;;;;;;;0.90;0.80;;;3.40;99.90;;;3.91;100.00;94521.13;4994450;28;20506;-83
2020/12/28 01:23:32;;;;;;;0.97;0.80;;;3.30;99.90;;;3.93;100.00;94519.09;4993753;28;20632;-83
2020/12/28 01:26:00;;;;;;;1.00;0.90;;;3.40;99.90;;;3.94;100.00;94518.09;4992122;28;20490;-83
2020/12/28 01:28:27;;;;;;;1.87;0.80;;;3.50;99.90;;;3.91;100.00;94528.91;4993235;28;20517;-83
2020/12/28 01:30:55;;;;;;;0.90;0.80;;;3.50;99.90;;;3.86;100.00;94526.22;4992732;28;20968;-84
2020/12/28 01:33:24;;;;;;;1.47;1.07;;;3.30;99.90;;;3.88;100.00;94517.22;4994015;28;20463;-83
2020/12/28 01:35:51;;;;;;;1.57;1.00;;;3.40;99.90;;;3.84;100.00;94507.59;4994161;28;20518;-84
2020/12/28 01:38:19;;;;;;;1.60;0.90;;;3.30;99.90;;;3.85;100.00;94519.50;4992859;28;21058;-83
2020/12/28 01:40:46;;;;;;;1.00;0.90;;;3.30;99.90;;;3.83;100.00;94519.72;4995511;28;20542;-83
2020/12/28 01:43:14;;;;;;;1.07;0.97;;;3.30;99.90;;;3.85;100.00;94529.81;4994074;28;20471;-83
2020/12/28 01:45:41;;;;;;;2.40;0.90;;;3.40;99.90;;;3.83;100.00;94529.25;4992537;28;20478;-84
2020/12/28 01:48:09;;;;;;;1.00;0.90;;;3.30;99.90;;;3.85;100.00;94535.75;4996133;28;20463;-83
2020/12/28 01:50:37;;;;;;;0.90;0.80;;;3.30;99.90;;;3.85;100.00;94540.16;4993443;28;20475;-84
2020/12/28 01:53:05;;;;;;;0.97;0.93;;;3.40;99.90;;;3.84;100.00;94539.38;4993192;28;20469;-84
2020/12/28 01:55:33;;;;;;;3.20;1.00;;;3.40;99.90;;;3.84;100.00;94544.53;4992591;28;20462;-84
2020/12/28 01:58:01;;;;;;;1.77;1.00;;;3.40;99.90;;;3.85;100.00;94547.91;4994428;28;20519;-84
2020/12/28 02:00:28;;;;;;;0.93;0.87;;;3.30;99.90;;;3.82;100.00;94549.13;4993858;28;20477;-84
2020/12/28 02:02:56;;;;;;;2.80;0.90;;;3.30;99.90;;;3.82;100.00;94549.13;4993288;28;20499;-84
2020/12/28 02:05:23;;;;;;;1.00;0.90;;;3.30;99.90;;;3.85;100.00;94555.66;4992993;28;20467;-84
2020/12/28 02:07:54;;;;;;;0.80;0.80;;;3.40;99.90;;;3.84;100.00;94554.09;4993392;28;20480;-83
2020/12/28 02:10:22;;;;;;;0.87;0.80;;;3.30;99.90;;;3.82;100.00;94543.97;4995879;28;20447;-83
2020/12/28 02:12:49;;;;;;;2.87;1.13;;;3.30;99.90;;;3.86;100.00;94549.47;4992072;28;20490;-84
2020/12/28 02:15:17;;;;;;;0.93;0.87;;;3.40;99.90;;;3.85;100.00;94558.25;4993262;28;20878;-84
2020/12/28 02:17:45;;;;;;;2.27;1.10;;;3.40;99.90;;;3.86;100.00;94549.47;4992407;28;20490;-83
2020/12/28 02:20:13;;;;;;;1.03;0.97;;;3.40;99.90;;;3.85;100.00;94550.50;4992452;28;20483;-84
2020/12/28 02:22:43;;;;;;;1.00;0.90;;;3.40;99.90;;;3.84;100.00;94546.34;4992148;28;20936;-84
2020/12/28 02:25:10;;;;;;;1.10;1.00;;;3.40;99.90;;;3.86;100.00;94547.66;4992936;28;20497;-83
2020/12/28 02:27:38;;;;;;;1.10;1.00;;;3.30;99.90;;;3.87;100.00;94536.31;4990614;28;20471;-84
2020/12/28 02:30:06;;;;;;;1.10;1.00;;;3.40;99.90;;;3.86;100.00;94536.53;4991411;28;20503;-84
2020/12/28 02:32:33;;;;;;;1.10;1.00;;;3.40;99.90;;;3.86;100.00;94528.78;4994282;28;20937;-84
2020/12/28 02:35:04;;;;;;;1.20;1.00;;;3.40;99.90;;;3.90;100.00;94524.72;4993269;28;20952;-84
2020/12/28 02:37:32;;;;;;;1.13;1.00;;;3.40;99.90;;;3.92;100.00;94525.31;4993217;28;20528;-83
2020/12/28 02:40:00;;;;;;;1.30;1.07;;;3.50;99.90;;;3.97;100.00;94525.38;4994348;28;21018;-84
2020/12/28 02:42:27;;;;;;;1.00;0.80;;;3.50;99.90;;;3.95;100.00;94528.19;4991303;28;20467;-84
2020/12/28 02:44:55;;;;;;;1.10;1.00;;;3.40;99.90;;;3.98;100.00;94526.94;4995594;28;20472;-84
2020/12/28 02:47:22;;;;;;;0.80;0.80;;;3.50;99.90;;;3.97;100.00;94520.19;4994928;28;20471;-84
2020/12/28 02:49:50;;;;;;;1.10;1.00;;;3.50;99.90;;;3.98;100.00;94516.59;4994389;28;20566;-84
2020/12/28 02:52:18;;;;;;;0.80;0.80;;;3.50;99.90;;;3.97;100.00;94518.41;4994123;28;20470;-84
2020/12/28 02:54:45;;;;;;;1.13;1.00;;;3.50;99.90;;;3.98;100.00;94519.19;4992808;28;20467;-84
2020/12/28 02:57:14;;;;;;;1.90;0.93;;;3.60;99.90;;;3.97;100.00;94521.00;4990912;28;20486;-84
2020/12/28 02:59:41;;;;;;;1.03;1.00;;;3.50;99.90;;;3.99;100.00;94524.13;4994320;28;20876;-84
2020/12/28 03:02:09;;;;;;;1.20;1.10;;;3.60;99.90;;;4.00;100.00;94530.06;4993724;28;21112;-84
2020/12/28 03:04:36;;;;;;;1.10;1.00;;;3.60;99.90;;;4.00;100.00;94530.06;4992964;28;20491;-84
2020/12/28 03:07:04;;;;;;;1.10;1.00;;;3.50;99.90;;;4.01;100.00;94529.84;4992525;28;20466;-84
2020/12/28 03:09:31;;;;;;;1.10;1.00;;;3.50;99.90;;;4.02;100.00;94523.69;4996115;28;20961;-84
2020/12/28 03:11:58;;;;;;;1.40;0.90;;;3.50;99.90;;;4.02;100.00;94521.09;4995916;28;20525;-84
2020/12/28 03:14:27;;;;;;;1.37;1.23;;;3.50;99.90;;;4.04;100.00;94515.66;4998994;28;20463;-84
2020/12/28 03:16:54;;;;;;;1.27;1.10;;;3.50;99.90;;;4.03;100.00;94512.28;4996818;28;20558;-84
2020/12/28 03:19:22;;;;;;;1.00;1.00;;;3.50;99.90;;;4.03;100.00;94509.72;4997617;28;20498;-85
2020/12/28 03:21:49;;;;;;;1.30;1.00;;;3.40;99.90;;;4.03;100.00;94508.94;4994704;28;20487;-84
2020/12/28 03:24:17;;;;;;;1.73;1.03;;;3.40;99.90;;;4.05;100.00;94507.69;4998407;28;20725;-84
2020/12/28 03:26:44;;;;;;;1.10;1.00;;;3.50;99.90;;;4.06;100.00;94505.91;4994808;28;20455;-84
2020/12/28 03:29:13;;;;;;;3.10;1.10;;;3.50;99.90;;;4.08;100.00;94509.03;4995466;28;20642;-84
2020/12/28 03:31:42;;;;;;;1.20;1.00;;;3.50;99.90;;;4.11;100.00;94510.34;4995740;28;20855;-84
2020/12/28 03:34:10;;;;;;;0.83;0.83;;;3.60;99.90;;;4.09;100.00;94512.41;4999303;28;20455;-84
2020/12/28 03:36:39;;;;;;;1.17;1.07;;;3.50;99.90;;;4.07;100.00;94516.00;4995023;28;20968;-85
2020/12/28 03:39:06;;;;;;;1.10;1.00;;;3.60;99.90;;;4.10;100.00;94511.34;4997229;28;20506;-84
2020/12/28 03:41:34;;;;;;;0.83;0.83;;;3.60;99.90;;;4.08;100.00;94516.78;4997472;28;20448;-84
2020/12/28 03:44:01;;;;;;;1.77;1.20;;;3.50;99.90;;;4.06;100.00;94508.47;4996365;28;20860;-83
2020/12/28 03:46:29;;;;;;;1.07;1.00;;;3.60;99.90;;;4.06;100.00;94508.47;4996042;28;20456;-84
2020/12/28 03:48:57;;;;;;;1.10;1.00;;;3.60;99.90;;;4.07;100.00;94505.66;4996525;28;20462;-84
2020/12/28 03:51:25;;;;;;;1.17;1.07;;;3.60;99.90;;;4.07;100.00;94510.03;4996412;28;20474;-84
2020/12/28 03:53:54;;;;;;;1.30;1.20;;;3.60;99.90;;;4.03;100.00;94501.16;4992392;28;20476;-84
2020/12/28 03:56:22;;;;;;;1.10;1.00;;;3.50;99.90;;;4.04;100.00;94500.16;4996281;28;20956;-84
2020/12/28 03:58:49;;;;;;;1.90;1.07;;;3.50;99.90;;;4.02;100.00;94504.78;4996718;28;20498;-85
2020/12/28 04:01:17;;;;;;;3.80;0.90;;;3.40;99.90;;;4.03;100.00;94496.00;4998219;28;20483;-83
2020/12/28 04:03:44;;;;;;;1.10;1.00;;;3.50;99.90;;;4.04;100.00;94510.50;4995247;28;20464;-84
2020/12/28 04:06:13;;;;;;;1.20;1.10;;;3.50;99.90;;;4.05;100.00;94506.91;4996901;28;20812;-84
2020/12/28 04:08:40;;;;;;;1.23;1.00;;;3.50;99.90;;;4.04;100.00;94506.13;4994538;28;21144;-84
2020/12/28 04:11:08;;;;;;;0.97;0.80;;;3.50;99.90;;;4.07;100.00;94510.03;4995249;28;20474;-84
2020/12/28 04:13:35;;;;;;;0.90;0.90;;;3.50;99.90;;;4.04;100.00;94507.91;4994603;28;20979;-85
2020/12/28 04:16:03;;;;;;;1.80;1.10;;;3.60;99.90;;;4.01;100.00;94510.97;4996590;28;20464;-85
2020/12/28 04:18:30;;;;;;;1.83;1.00;;;3.50;99.90;;;3.97;100.00;94508.06;4994041;28;20514;-84
2020/12/28 04:20:58;;;;;;;1.07;0.97;;;3.50;99.90;;;3.97;100.00;94509.88;4996333;28;20526;-84
2020/12/28 04:23:27;;;;;;;1.73;1.10;;;3.40;99.90;;;4.01;100.00;94505.81;4994794;28;20464;-84
2020/12/28 04:25:55;;;;;;;2.70;0.90;;;3.40;99.90;;;3.96;100.00;94513.47;4994731;28;20470;-84
2020/12/28 04:28:22;;;;;;;0.90;0.90;;;3.40;99.90;;;3.93;100.00;94498.41;4994198;28;20487;-84
2020/12/28 04:30:50;;;;;;;1.00;0.90;;;3.30;99.90;;;3.95;100.00;94506.75;4994430;28;20499;-84
2020/12/28 04:33:18;;;;;;;1.67;0.90;;;3.30;99.90;;;3.96;100.00;94487.63;4994400;28;20474;-83
2020/12/28 04:35:45;;;;;;;3.90;1.20;;;3.30;99.90;;;3.98;100.00;94488.19;4995113;28;20483;-85
2020/12/28 04:38:13;;;;;;;1.10;1.00;;;3.30;99.90;;;3.98;100.00;94491.56;4995439;28;21034;-84
2020/12/28 04:40:41;;;;;;;73.63;29.97;;;3.40;99.90;;;3.99;100.00;94485.34;4994545;28;20485;-83
2020/12/28 04:43:12;;;;;;;4.53;1.93;;;3.40;99.90;;;3.95;100.00;94478.31;4993607;28;20956;-84
2020/12/28 04:45:41;;;;;;;1.00;0.80;;;3.30;99.90;;;3.87;100.00;94487.22;4991896;28;20474;-85
2020/12/28 04:48:09;;;;;;;0.80;0.80;;;3.20;99.90;;;3.87;100.00;94481.28;4994886;28;20873;-84
2020/12/28 04:50:39;;;;;;;2.73;1.40;;;3.10;99.90;;;3.82;100.00;94478.59;4996021;28;20452;-85
2020/12/28 04:53:07;;;;;;;1.33;1.07;;;3.10;99.90;;;3.80;100.00;94473.69;4993612;28;20454;-82
2020/12/28 04:55:34;;;;;;;1.90;1.00;;;3.10;99.90;;;3.88;100.00;94464.75;4993736;28;20479;-84
2020/12/28 04:58:03;;;;;;;0.90;0.90;;;3.20;99.90;;;3.90;100.00;94479.00;4997054;28;20490;-84
2020/12/28 05:00:30;;;;;;;0.90;0.80;;;3.20;99.90;;;3.82;100.00;94474.22;4996706;28;20456;-85
2020/12/28 05:02:59;;;;;;;1.20;1.10;;;3.10;99.90;;;3.73;100.00;94472.25;4997120;28;20447;-84
2020/12/28 05:05:26;;;;;;;4.20;1.00;;;2.90;99.90;;;3.77;100.00;94463.03;4996289;28;20971;-85
2020/12/28 05:07:54;;;;;;;1.10;1.00;;;3.00;99.90;;;3.79;100.00;94466.16;4998600;28;20490;-85
2020/12/28 05:10:26;;;;;;;0.90;0.90;;;3.10;99.90;;;3.75;100.00;94471.00;4997231;28;20443;-84
2020/12/28 05:12:54;;;;;;;1.30;1.00;;;3.00;99.90;;;3.66;100.00;94469.81;4996878;28;20451;-85
2020/12/28 05:15:23;;;;;;;1.00;0.90;;;2.90;99.90;;;3.66;100.00;94466.44;4995819;28;20476;-84
2020/12/28 05:17:54;;;;;;;1.20;1.00;;;2.90;99.90;;;3.63;100.00;94466.91;4996004;28;20491;-85
2020/12/28 05:20:25;;;;;;;0.70;0.70;;;2.80;99.90;;;3.69;100.00;94468.56;4996048;28;20556;-85
2020/12/28 05:22:55;;;;;;;1.03;0.90;;;2.90;99.90;;;3.67;100.00;94462.84;4995815;28;20456;-84
2020/12/28 05:25:23;;;;;;;1.43;1.13;;;2.80;99.90;;;3.60;100.00;94462.22;4995810;28;20528;-85
2020/12/28 05:27:52;;;;;;;1.00;0.90;;;2.80;99.90;;;3.58;100.00;94461.66;4994131;28;20464;-85
2020/12/28 05:30:22;;;;;;;1.30;1.20;;;2.70;99.90;;;3.59;100.00;94460.63;4993290;28;20522;-84
2020/12/28 05:32:49;;;;;;;1.30;1.20;;;2.70;99.90;;;3.62;100.00;94460.16;4996072;28;20472;-84
2020/12/28 05:35:17;;;;;;;1.30;1.20;;;2.80;99.90;;;3.62;100.00;94460.97;4992346;28;20471;-84
2020/12/28 05:37:48;;;;;;;1.17;1.07;;;2.80;99.90;;;3.65;100.00;94462.28;4994749;28;20899;-85
2020/12/28 05:40:18;;;;;;;1.03;0.93;;;2.80;99.90;;;3.62;100.00;94455.00;4996041;28;20444;-84
2020/12/28 05:42:52;;;;;;;1.27;1.17;;;2.80;99.90;;;3.65;100.00;94449.38;4996730;28;20988;-84
2020/12/28 05:45:20;;;;;;;1.30;1.13;;;2.90;99.90;;;3.66;100.00;94453.53;4992242;28;20508;-81
2020/12/28 05:47:52;;;;;;;4.50;2.87;;;2.90;99.90;;;3.67;100.00;94457.69;4996833;28;20440;-84
2020/12/28 05:50:23;;;;;;;1.23;1.10;;;2.90;99.90;;;3.68;100.00;94454.09;4994862;28;20521;-84
2020/12/28 05:52:54;;;;;;;1.30;1.20;;;2.90;99.90;;;3.69;100.00;94455.63;4994211;28;20867;-84
2020/12/28 05:55:24;;;;;;;4.83;1.17;;;3.10;99.90;;;3.64;100.00;94458.16;4992776;28;20467;-84
2020/12/28 05:57:54;;;;;;;2.33;1.27;;;2.90;99.90;;;3.60;100.00;94473.34;4994113;28;20583;-84
2020/12/28 06:00:22;;;;;;;1.50;1.20;;;2.90;99.90;;;3.62;100.00;94470.50;4993022;28;20862;-85
2020/12/28 06:02:54;;;;;;;1.20;1.10;;;2.90;99.90;;;3.67;100.00;94478.34;4992653;28;20514;-85
2020/12/28 06:05:22;;;;;;;1.93;1.40;;;3.00;99.90;;;3.67;100.00;94473.97;4991629;28;20522;-84
2020/12/28 06:07:50;;;;;;;3.90;1.30;;;3.00;99.90;;;3.64;100.00;94487.34;4993368;28;20992;-84
2020/12/28 06:10:20;;;;;;;1.40;1.30;;;2.90;99.90;;;3.64;100.00;94489.16;4991557;28;20464;-84
2020/12/28 06:12:56;;;;;;;6.10;2.07;;;2.90;99.90;;;3.59;100.00;94489.03;4993921;28;20499;-84
2020/12/28 06:15:24;;;;;;;1.50;1.40;;;2.90;99.90;;;3.58;100.00;94495.22;4992956;28;20460;-84
2020/12/28 06:17:52;;;;;;;1.70;1.60;;;2.80;99.90;;;3.62;100.00;94502.28;4993529;28;20477;-83
2020/12/28 06:20:31;;;;;;;1.40;1.30;;;2.90;99.90;;;3.66;100.00;94493.06;4997756;28;20471;-84
2020/12/28 06:23:05;;;;;;;2.60;1.57;;;3.00;99.90;;;3.69;100.00;94482.25;4998189;28;20525;-83
2020/12/28 06:25:32;;;;;;;1.40;1.30;;;3.10;99.90;;;3.71;100.00;94485.41;4996116;28;20458;-83
2020/12/28 06:28:00;;;;;;;2.20;1.60;;;3.00;99.90;;;3.75;100.00;94485.72;4994998;28;20978;-83
2020/12/28 06:30:27;;;;;;;2.80;1.50;;;3.10;99.90;;;3.77;100.00;94474.16;4996469;28;20821;-83
2020/12/28 06:33:04;;;;;;;2.00;1.70;;;3.20;99.90;;;3.79;100.00;94469.50;4995449;28;20450;-83
2020/12/28 06:35:33;;;;;;;2.00;1.40;;;3.20;99.90;;;3.80;100.00;94475.47;4996897;28;20477;-82
2020/12/28 06:38:03;;;;;;;1.63;1.37;;;3.10;99.90;;;3.83;100.00;94465.44;4996073;28;20460;-83
2020/12/28 06:40:33;;;;;;;2.00;1.40;;;3.10;99.90;;;3.73;100.00;94473.03;4996249;28;20455;-82
2020/12/28 06:43:12;;;;;;;3.20;1.43;;;3.00;99.90;;;3.67;100.00;94453.31;4999961;28;20467;-82
2020/12/28 06:45:42;;;;;;;1.40;1.30;;;2.90;99.90;;;3.64;100.00;94464.09;5001034;28;20934;-83
2020/12/28 06:48:18;;;;;;;1.73;1.60;;;2.80;99.90;;;3.60;100.00;94457.03;5002085;28;20840;-82
2020/12/28 06:50:49;;;;;;;1.93;1.40;;;2.90;99.90;;;3.62;100.00;94447.25;4999243;28;20462;-83
2020/12/28 06:53:20;;;;;;;4.63;1.33;;;2.90;99.90;;;3.64;100.00;94451.19;5000087;28;20491;-83
2020/12/28 06:55:47;;;;;;;1.73;1.60;;;2.90;99.90;;;3.69;100.00;94445.31;5000603;28;20489;-83
2020/12/28 06:58:15;;;;;;;1.77;1.53;;;2.90;99.90;;;3.67;100.00;94435.22;5001579;28;20493;-83
2020/12/28 07:00:44;;;;;;;1.97;1.60;;;2.90;99.90;;;3.66;100.00;94446.56;5000179;28;20534;-83
2020/12/28 07:03:14;;;;;;;1.90;1.63;;;2.90;99.90;;;3.50;100.00;94455.09;5000707;28;20456;-82
2020/12/28 07:05:43;;;;;;;1.30;1.20;;;2.70;99.90;;;3.51;100.00;94456.63;5000130;28;20931;-82
2020/12/28 07:08:11;;;;;;;2.50;2.00;;;2.70;99.90;;;3.53;100.00;94452.81;5001029;28;20520;-82
2020/12/28 07:10:38;;;;;;;2.97;1.90;;;2.70;99.90;;;3.55;100.00;94458.53;5001244;28;20451;-82
2020/12/28 07:13:08;;;;;;;2.50;1.97;;;2.70;99.90;;;3.51;100.00;94462.56;5001514;28;20458;-82
2020/12/28 07:15:35;;;;;;;1.73;1.63;;;2.70;99.90;;;3.51;100.00;94462.56;5001020;28;20952;-82
2020/12/28 07:18:06;;;;;;;3.00;1.77;;;2.80;99.90;;;3.53;100.00;94463.16;5000608;28;20932;-82
2020/12/28 07:20:33;;;;;;;2.97;1.60;;;3.00;99.90;;;3.44;100.00;94479.22;5001467;28;20487;-82
2020/12/28 07:23:02;;;;;;;3.47;1.63;;;2.90;99.90;;;3.42;100.00;94484.63;5000949;28;20915;-81
2020/12/28 07:25:30;;;;;;;2.30;2.10;;;2.70;99.90;;;3.43;100.00;94488.00;5000531;28;20830;-82
2020/12/28 07:27:58;;;;;;;3.40;1.70;;;2.70;99.90;;;3.39;100.00;94498.00;5000754;28;20451;-81
2020/12/28 07:30:25;;;;;;;4.13;2.47;;;2.70;99.90;;;3.40;100.00;94493.63;5000883;28;20460;-82
2020/12/28 07:32:58;;;;;;;7.70;3.13;;;2.60;99.90;;;3.40;100.00;94499.56;4999654;28;20996;-81
2020/12/28 07:35:29;;;;;;;2.70;2.00;;;2.80;99.90;;;3.37;100.00;94510.34;5000841;28;20439;-81
2020/12/28 07:37:58;;;;;;;3.60;2.07;;;2.70;99.90;;;3.38;100.00;94511.91;4999439;28;20537;-82
2020/12/28 07:40:26;;;;;;;5.10;2.17;;;2.70;99.90;;;3.43;100.00;94509.44;5000859;28;20975;-82
2020/12/28 07:42:55;;;;;;;4.17;2.70;;;2.70;99.90;;;3.39;100.00;94508.34;5000284;28;20454;-81
2020/12/28 07:45:23;;;;;;;4.20;2.17;;;2.60;99.90;;;3.43;100.00;94501.69;5000898;28;20455;-81
2020/12/28 07:47:56;;;;;;;2.73;1.97;;;2.70;99.90;;;3.44;100.00;94490.34;5000191;28;20529;-81
2020/12/28 07:50:26;;;;;;;2.97;2.20;;;2.70;99.90;;;3.33;100.00;94492.97;4999835;28;20916;-81
2020/12/28 07:53:01;;;;;;;3.30;2.70;;;2.60;99.90;;;3.30;100.00;94504.53;4999898;28;20898;-82
2020/12/28 07:55:39;;;;;;;2.33;2.13;;;2.50;99.90;;;3.28;100.00;94500.63;4998156;28;20505;-82
2020/12/28 07:58:17;;;;;;;2.47;2.10;;;2.50;99.90;;;3.35;100.00;94496.91;5000305;28;20555;-82
2020/12/28 08:00:50;;;;;;;2.87;2.10;;;2.60;99.90;;;3.37;100.00;94494.84;4999709;28;20546;-82
2020/12/28 08:03:27;;;;;;;2.23;2.03;;;2.60;99.90;;;3.41;100.00;94488.22;5001048;28;20451;-82
2020/12/28 08:06:02;;;;;;;3.27;1.80;;;2.60;99.90;;;3.41;100.00;94497.75;5000556;28;20811;-82
2020/12/28 08:08:30;;;;;;;2.30;1.90;;;2.70;99.90;;;3.43;100.00;94488.00;4999576;28;20513;-82
2020/12/28 08:11:02;;;;;;;3.10;1.50;;;2.70;99.90;;;3.46;100.00;94482.38;5000268;28;20451;-82
2020/12/28 08:13:32;;;;;;;4.90;1.90;;;2.70;99.90;;;3.49;100.00;94471.56;4999326;28;20440;-83
2020/12/28 08:16:09;;;;;;;5.00;1.90;;;2.70;99.90;;;3.52;100.00;94459.00;4999743;28;20951;-82
2020/12/28 08:18:51;;;;;;;7.30;2.13;;;2.80;99.90;;;3.56;100.00;94456.72;5000077;28;20487;-83
2020/12/28 08:21:20;;;;;;;2.70;1.70;;;2.80;99.90;;;3.53;100.00;94452.81;4999227;28;20541;-82
2020/12/28 08:23:52;;;;;;;3.20;1.70;;;2.80;99.90;;;3.51;100.00;94457.41;4999774;28;20462;-82
2020/12/28 08:26:23;;;;;;;6.37;1.73;;;2.80;99.90;;;3.50;100.00;94458.44;4999445;28;20459;-82
2020/12/28 08:28:54;;;;;;;2.17;1.70;;;2.70;99.90;;;3.57;100.00;94458.31;4999825;28;21153;-82
2020/12/28 08:31:27;;;;;;;3.13;1.70;;;2.80;99.90;;;3.64;100.00;94453.00;4999718;28;20455;-82
2020/12/28 08:34:02;;;;;;;1.80;1.50;;;2.90;99.90;;;3.63;100.00;94464.31;4999842;28;21043;-82
2020/12/28 08:36:31;;;;;;;1.80;1.43;;;2.90;99.90;;;3.61;100.00;94467.13;4998555;28;20983;-82
2020/12/28 08:39:09;;;;;;;2.60;1.73;;;2.80;99.90;;;3.64;100.00;94473.66;4999632;28;20503;-82
2020/12/28 08:41:38;;;;;;;2.43;1.80;;;2.90;99.90;;;3.64;100.00;94473.66;4998579;28;20874;-83
2020/12/28 08:44:06;;;;;;;2.10;1.90;;;2.90;99.90;;;3.64;100.00;94479.59;4998263;28;20451;-83
2020/12/28 08:46:34;;;;;;;2.13;1.40;;;2.90;99.90;;;3.66;100.00;94492.28;4999218;28;20484;-82
2020/12/28 08:49:01;;;;;;;2.80;2.25;;;2.90;99.90;;;3.71;100.00;94488.00;4998007;28;20455;-83
2020/12/28 08:51:31;;;;;;;5.47;2.27;;;2.90;99.90;;;3.81;100.00;94489.97;4999489;28;20716;-82
2020/12/28 08:53:58;;;;;;;3.83;2.13;;;3.00;99.90;;;3.85;100.00;94491.06;4999525;28;20906;-82
2020/12/28 08:56:26;;;;;;;1.93;1.83;;;3.10;99.90;;;3.85;100.00;94481.50;4999762;28;20468;-82
2020/12/28 08:59:04;;;;;;;2.33;1.90;;;3.10;99.90;;;3.91;100.00;94477.22;4999193;28;20495;-82
2020/12/28 09:01:32;;;;;;;1.87;1.77;;;3.10;99.90;;;3.91;100.00;94482.38;5001201;28;20537;-83
2020/12/28 09:04:02;;;;;;;3.10;1.70;;;3.20;99.90;;;3.94;100.00;94476.75;4999250;28;20448;-82
2020/12/28 09:06:29;;;;;;;3.33;2.00;;;3.20;99.90;;;3.97;100.00;94476.28;5000458;28;20463;-82
2020/12/28 09:08:57;;;;;;;2.43;1.67;;;3.20;99.90;;;4.04;100.00;94474.31;4998513;28;20834;-82
2020/12/28 09:11:24;;;;;;;1.90;1.70;;;3.40;99.90;;;4.12;100.00;94473.94;4999916;28;20470;-83
2020/12/28 09:13:52;;;;;;;2.10;1.77;;;3.50;99.90;;;4.15;100.00;94478.63;4997855;28;20463;-82
2020/12/28 09:16:24;;;;;;;1.43;1.33;;;3.50;99.90;;;4.19;100.00;94471.97;4999280;28;20462;-83
2020/12/28 09:18:52;;;;;;;2.03;1.60;;;3.60;99.90;;;4.23;100.00;94470.50;4998356;28;20570;-82
2020/12/28 09:21:21;;;;;;;2.97;1.87;;;3.70;99.90;;;4.26;100.00;94472.59;4997786;28;21020;-82
2020/12/28 09:23:48;;;;;;;3.77;1.87;;;3.60;99.90;;;4.27;100.00;94468.97;4997519;28;20463;-83
2020/12/28 09:26:17;;;;;;;1.63;1.50;;;3.60;99.90;;;4.27;100.00;94470.81;4998243;28;20475;-82
2020/12/28 09:28:45;;;;;;;2.00;1.40;;;3.60;99.90;;;4.29;100.00;94461.00;4996770;28;20890;-82
2020/12/28 09:31:13;;;;;;;2.10;1.50;;;3.60;99.90;;;4.27;100.00;94468.22;4999260;28;20826;-82
2020/12/28 09:33:41;;;;;;;1.50;1.40;;;3.60;99.90;;;4.27;100.00;94463.03;4999370;28;20451;-82
2020/12/28 09:36:09;;;;;;;2.50;2.07;;;3.60;99.90;;;4.29;100.00;94458.41;4998311;28;20444;-82
2020/12/28 09:38:37;;;;;;;1.77;1.67;;;3.60;99.90;;;4.28;100.00;94467.97;4998888;28;20495;-82
2020/12/28 09:41:05;;;;;;;2.10;1.90;;;3.60;99.90;;;4.29;100.00;94479.09;4998918;28;20452;-83
2020/12/28 09:43:32;;;;;;;4.00;1.80;;;3.70;99.90;;;4.25;100.00;94475.41;4998875;28;20448;-82
2020/12/28 09:46:00;;;;;;;1.90;1.60;;;3.60;99.90;;;4.26;100.00;94477.00;4997783;28;20475;-82
2020/12/28 09:48:27;;;;;;;1.50;1.40;;;3.60;99.90;;;4.27;100.00;94476.72;4999175;28;20444;-82
2020/12/28 09:50:56;;;;;;;2.50;2.00;;;3.60;99.90;;;4.29;100.00;94477.31;4997580;28;20456;-82
2020/12/28 09:53:24;;;;;;;3.77;1.60;;;3.60;99.90;;;4.34;100.00;94479.19;4997848;28;20444;-82
2020/12/28 09:55:51;;;;;;;3.33;2.30;;;3.70;99.90;;;4.32;100.00;94486.38;4998890;28;20440;-82
2020/12/28 09:58:19;;;;;;;3.57;3.10;;;3.60;99.90;;;4.37;100.00;94483.88;4999102;28;20451;-82
2020/12/28 10:00:46;;;;;;;4.03;2.33;;;3.60;99.90;;;4.40;100.00;94491.16;4999330;28;20475;-82
2020/12/28 10:03:14;;;;;;;5.43;2.63;;;3.60;99.90;;;4.42;100.00;94484.72;4998440;28;20944;-82
2020/12/28 10:05:42;;;;;;;2.13;2.00;;;3.70;99.90;;;4.44;100.00;94477.50;4997216;28;20502;-82
2020/12/28 10:08:10;;;;;;;1.70;1.60;;;3.70;99.90;;;4.47;100.00;94471.09;4998503;28;20454;-82
2020/12/28 10:10:38;;;;;;;1.97;1.80;;;3.70;99.90;;;4.48;100.00;94465.66;4998020;28;20455;-82
2020/12/28 10:13:05;;;;;;;3.90;2.17;;;3.70;99.90;;;4.49;100.00;94461.28;4998748;28;20931;-82
2020/12/28 10:15:33;;;;;;;3.00;1.97;;;3.70;99.90;;;4.49;100.00;94461.28;4997775;28;20471;-82
2020/12/28 10:18:39;;;;;;;3.10;1.77;;;3.70;99.90;;;4.55;100.00;94461.13;4997674;28;20948;-82
2020/12/28 10:21:11;;;;;;;1.50;1.30;;;3.80;99.90;;;4.58;100.00;94458.03;4998301;28;20470;-82
2020/12/28 10:23:39;;;;;;;1.90;1.70;;;3.90;99.90;;;4.60;100.00;94457.81;4997802;28;20459;-82
2020/12/28 10:26:07;;;;;;;1.70;1.60;;;3.90;99.90;;;4.64;100.00;94450.38;4997518;28;20443;-82
2020/12/28 10:28:35;;;;;;;2.63;1.50;;;4.00;99.90;;;4.69;100.00;94451.19;4998166;28;20484;-82
2020/12/28 10:31:08;;;;;;;1.90;1.50;;;4.10;99.90;;;4.74;100.00;94455.66;4996417;28;20464;-83
2020/12/28 10:33:37;;;;;;;2.60;1.63;;;4.10;99.90;;;4.77;100.00;94452.59;4997573;28;20461;-82